Terminal Aerodrome Forecast
Issued by NWS Sterling, VA

Current Version | Previous Version | Graphics & Text | Print | Product List | Glossary On
Versions: 1 2 3 4 5 6 7 8 9 10 11 12 13 14 15 16 17 18 19 20 21 22 23 24 25 26 27 28 29 30 31
202
FTUS41 KLWX 011722
TAFIAD
TAF
KIAD 011722Z 0118/0224 17007KT P6SM OVC008
     FM020100 11005KT 3SM BR VCTS BKN008 OVC015CB
     FM020600 05005KT 1 1/2SM BR OVC003
     FM020800 10004KT 1/2SM FG OVC003
     FM021200 19004KT 3/4SM BR BKN003
     FM021600 24008KT P6SM BKN035
     FM022100 26008KT P6SM BKN080=

USA.gov is the U.S. government's official web portal to all federal, state and local government web resources and services.